Главная страница
METAR-TAF:

METAR-TAF

Аэропорты :

Хёугесунн, Норвегия

широта: 59-21N, долгота: 005-13E, высота над уровнем моря: 2 м

Текущие метеонаблюдения

Эта сводка был подготовлена 25 минут назад, в 21:50 UTC
Ветер 14 Узел от северно-северо-западный
Температура 7°C
Влажность 70%
Давление 1009 hPa
Видимость 10 км и более

METAR: ENHD 072150Z AUTO 34014KT 9999 NCD 07/02 Q1009

Время: 00:15 (22:15 UTC)

Прогноз

Эта сводка был подготовлена 3 часа и 27 минут назад, в 18:48 UTC
Прогноз действительный с 07-го 18 UTC до 07-го 20 UTC
Ветер 12 Узел от северо-западный
Видимость 10 км и более
небольшая облачность на высоте 2500 фута, мощно-кучевые.
временами
С 07-го 18 UTC до 07-го 20 UTC
небольшая облачность на высоте 2500 фута, Кучево-дождевые.

TAF: ENHD 071848Z 0718/0720 32012KT 9999 FEW025TCU TEMPO 0718/0720 FEW025CB

Метеонаблюдения и прогнозы для более 4000 аэропортов (сводки METAR и TAF).

Имеющиеся станции представлены на карте желтыми и красными точками.

Чтобы увидеть название станции, наведите на нее мышь.

Затем щелкните, чтобы увидеть метеонаблюдения и метеопрогнозы.

Управление картой: чтобы увеличить масштаб, щелкните зеленые кнопки с черным крестиком; чтобы уменьшить масштаб, щелкните зеленую кнопку с тире; для просмотра соседних карт щелкайте зеленые стрелки.


METAR-TAF: